createdAt,value
2019-02-18T00:00:43.961Z,3.03
2019-02-18T00:03:10.570Z,2.17
2019-02-18T00:05:37.094Z,1.77
2019-02-18T00:08:03.665Z,2.07
2019-02-18T00:10:30.075Z,1.87
2019-02-18T00:12:56.585Z,1.57
2019-02-18T00:15:22.948Z,1.97
2019-02-18T00:17:49.406Z,2.10
2019-02-18T00:20:15.792Z,1.57
2019-02-18T00:22:42.302Z,2.73
2019-02-18T00:25:08.901Z,1.70
2019-02-18T00:27:35.369Z,2.27
2019-02-18T00:30:02.068Z,2.13
2019-02-18T00:32:28.386Z,2.23
2019-02-18T00:34:54.770Z,2.13
2019-02-18T00:37:24.338Z,1.80
2019-02-18T00:39:49.251Z,2.03
2019-02-18T00:42:15.517Z,2.13
2019-02-18T00:44:41.917Z,1.93
2019-02-18T00:47:08.183Z,3.10
2019-02-18T00:49:34.744Z,2.93
2019-02-18T00:52:01.231Z,2.60
2019-02-18T00:54:27.616Z,2.67
2019-02-18T00:56:53.998Z,2.53
2019-02-18T00:59:20.387Z,1.80
2019-02-18T01:01:46.856Z,1.77
2019-02-18T01:04:13.367Z,1.93
2019-02-18T01:06:39.751Z,2.27
2019-02-18T01:09:06.352Z,2.77
2019-02-18T01:11:32.944Z,1.80
2019-02-18T01:13:59.416Z,2.20
2019-02-18T01:16:25.788Z,1.93
2019-02-18T01:18:52.111Z,1.60
2019-02-18T01:21:18.469Z,1.90
2019-02-18T01:23:44.918Z,2.13
2019-02-18T01:26:11.287Z,2.00
2019-02-18T01:28:37.862Z,2.50
2019-02-18T01:31:05.096Z,2.03
2019-02-18T01:33:31.549Z,2.00
2019-02-18T01:35:58.048Z,2.00
2019-02-18T01:38:24.442Z,2.20
2019-02-18T01:40:51.011Z,2.20
2019-02-18T01:43:17.513Z,2.10
2019-02-18T01:45:44.146Z,1.83
2019-02-18T01:48:10.600Z,2.60
2019-02-18T01:50:37.193Z,3.13
2019-02-18T01:53:03.777Z,2.70
2019-02-18T01:55:30.147Z,2.80
2019-02-18T01:57:56.530Z,3.57
2019-02-18T02:00:23.010Z,2.50
2019-02-18T02:02:49.501Z,3.00
2019-02-18T02:05:16.096Z,3.50
2019-02-18T02:07:42.641Z,4.33
2019-02-18T02:10:11.016Z,3.47
2019-02-18T02:12:37.507Z,3.70
2019-02-18T02:15:19.227Z,3.03
2019-02-18T02:17:45.581Z,4.23
2019-02-18T02:20:12.066Z,3.90
2019-02-18T02:22:38.656Z,3.50
2019-02-18T02:25:05.342Z,4.50
2019-02-18T02:27:31.926Z,4.47
2019-02-18T02:29:58.474Z,4.50
2019-02-18T02:32:25.034Z,4.30
2019-02-18T02:34:51.471Z,5.23
2019-02-18T02:37:17.893Z,4.97
2019-02-18T02:39:44.425Z,5.20
2019-02-18T02:42:10.982Z,5.60
2019-02-18T02:44:37.460Z,4.27
2019-02-18T02:47:03.942Z,6.87
2019-02-18T02:49:30.307Z,5.87
2019-02-18T02:51:56.776Z,5.80
2019-02-18T02:54:23.232Z,5.77
2019-02-18T02:56:49.631Z,6.33
2019-02-18T02:59:16.109Z,6.17
2019-02-18T03:01:42.474Z,7.17
2019-02-18T03:04:08.855Z,6.73
2019-02-18T03:06:35.243Z,5.63
2019-02-18T03:09:01.639Z,6.17
2019-02-18T03:11:28.295Z,7.73
2019-02-18T03:13:54.743Z,8.00
2019-02-18T03:16:21.231Z,7.27
2019-02-18T03:18:47.657Z,7.60
2019-02-18T03:21:14.279Z,5.70
2019-02-18T03:23:40.777Z,6.27
2019-02-18T03:26:08.407Z,6.67
2019-02-18T03:28:44.565Z,7.53
2019-02-18T03:31:17.434Z,7.53
2019-02-18T03:33:47.563Z,6.80
2019-02-18T03:36:13.955Z,6.77
2019-02-18T03:38:40.656Z,6.53
2019-02-18T03:41:07.136Z,6.23
2019-02-18T03:43:33.738Z,6.50
2019-02-18T03:46:00.224Z,7.53
2019-02-18T03:48:26.711Z,7.20
2019-02-18T03:50:53.010Z,6.73
2019-02-18T03:53:19.392Z,6.33
2019-02-18T03:55:45.904Z,7.13
2019-02-18T03:58:12.302Z,6.17
2019-02-18T04:00:38.776Z,7.23
2019-02-18T04:03:05.270Z,6.30
2019-02-18T04:05:31.687Z,7.00
2019-02-18T04:07:58.260Z,7.23
2019-02-18T04:10:24.729Z,6.53
2019-02-18T04:12:51.138Z,7.00
2019-02-18T04:15:17.756Z,7.43
2019-02-18T04:17:44.261Z,7.57
2019-02-18T04:20:10.836Z,7.70
2019-02-18T04:22:37.247Z,6.87
2019-02-18T04:25:05.444Z,7.27
2019-02-18T04:27:31.865Z,7.13
2019-02-18T04:29:58.231Z,7.47
2019-02-18T04:32:24.757Z,8.43
2019-02-18T04:34:51.147Z,7.63
2019-02-18T04:37:17.650Z,7.47
2019-02-18T04:39:44.045Z,7.83
2019-02-18T04:42:10.535Z,9.00
2019-02-18T04:44:37.043Z,8.40
2019-02-18T04:47:03.533Z,8.43
2019-02-18T04:49:30.004Z,9.70
2019-02-18T04:51:56.368Z,8.23
2019-02-18T04:54:22.877Z,9.57
2019-02-18T04:56:49.372Z,8.33
2019-02-18T04:59:15.762Z,9.17
2019-02-18T05:01:42.262Z,9.87
2019-02-18T05:04:08.547Z,7.63
2019-02-18T05:06:35.040Z,9.23
2019-02-18T05:09:05.416Z,8.67
2019-02-18T05:11:29.841Z,8.83
2019-02-18T05:13:56.225Z,9.07
2019-02-18T05:16:22.622Z,8.30
2019-02-18T05:18:49.189Z,8.87
2019-02-18T05:21:15.628Z,8.93
2019-02-18T05:23:41.969Z,10.00
2019-02-18T05:26:08.455Z,9.73
2019-02-18T05:28:35.039Z,9.00
2019-02-18T05:31:01.512Z,8.83
2019-02-18T05:33:28.170Z,9.50
2019-02-18T05:35:55.933Z,8.37
2019-02-18T05:38:22.462Z,7.97
2019-02-18T05:40:49.026Z,8.53
2019-02-18T05:43:15.546Z,8.73
2019-02-18T05:45:43.525Z,8.03
2019-02-18T05:48:10.095Z,8.40
2019-02-18T05:50:36.489Z,9.90
2019-02-18T05:53:02.850Z,9.50
2019-02-18T05:55:31.049Z,9.00
2019-02-18T05:57:57.518Z,7.20
2019-02-18T06:00:24.163Z,7.87
2019-02-18T06:02:50.689Z,7.20
2019-02-18T06:05:16.954Z,8.30
2019-02-18T06:07:43.483Z,9.63
2019-02-18T06:10:10.020Z,7.70
2019-02-18T06:12:36.430Z,8.63
2019-02-18T06:15:04.266Z,7.57
2019-02-18T06:17:30.737Z,8.10
2019-02-18T06:19:57.394Z,7.77
2019-02-18T06:22:23.760Z,7.53
2019-02-18T06:24:50.328Z,7.87
2019-02-18T06:27:17.875Z,7.27
2019-02-18T06:29:44.130Z,6.80
2019-02-18T06:32:10.623Z,7.57
2019-02-18T06:34:37.197Z,6.60
2019-02-18T06:37:03.853Z,16.87
2019-02-18T06:39:40.917Z,7.57
2019-02-18T06:41:58.948Z,6.40
2019-02-18T06:44:27.458Z,6.77
2019-02-18T06:46:55.750Z,7.27
2019-02-18T06:49:22.096Z,6.00
2019-02-18T06:51:48.610Z,6.67
2019-02-18T06:54:15.106Z,6.67
2019-02-18T06:56:55.778Z,5.73
2019-02-18T06:59:24.049Z,5.93
2019-02-18T07:02:07.161Z,5.63
2019-02-18T07:04:35.529Z,5.30
2019-02-18T07:07:06.705Z,5.03
2019-02-18T07:09:34.986Z,6.30
2019-02-18T07:12:05.248Z,7.20
2019-02-18T07:14:31.838Z,5.93
2019-02-18T07:17:00.176Z,6.73
2019-02-18T07:19:26.664Z,6.67
2019-02-18T07:21:53.282Z,5.77
2019-02-18T07:24:19.684Z,5.50
2019-02-18T07:26:46.114Z,5.57
2019-02-18T07:29:12.485Z,5.47
2019-02-18T07:31:38.981Z,6.00
2019-02-18T07:34:07.195Z,5.70
2019-02-18T07:36:35.111Z,5.47
2019-02-18T07:39:03.605Z,5.57
2019-02-18T07:41:30.111Z,5.40
2019-02-18T07:43:56.696Z,4.73
2019-02-18T07:46:23.055Z,5.10
2019-02-18T07:48:49.562Z,4.67
2019-02-18T07:51:15.949Z,4.73
2019-02-18T07:53:42.460Z,4.47
2019-02-18T07:56:08.828Z,4.63
2019-02-18T07:58:35.341Z,4.20
2019-02-18T08:01:01.903Z,5.13
2019-02-18T08:03:28.375Z,4.83
2019-02-18T08:05:54.818Z,4.83
2019-02-18T08:08:21.323Z,5.50
2019-02-18T08:10:47.721Z,4.53
2019-02-18T08:13:15.512Z,4.20
2019-02-18T08:15:41.775Z,3.83
2019-02-18T08:18:08.156Z,4.10
2019-02-18T08:20:34.556Z,4.33
2019-02-18T08:23:01.042Z,4.07
2019-02-18T08:25:27.517Z,3.97
2019-02-18T08:27:53.973Z,4.20
2019-02-18T08:30:20.455Z,3.50
2019-02-18T08:32:47.062Z,5.40
2019-02-18T08:35:13.605Z,3.90
2019-02-18T08:37:40.223Z,2.83
2019-02-18T08:40:08.498Z,3.00
2019-02-18T08:42:34.787Z,3.03
2019-02-18T08:45:01.282Z,2.73
2019-02-18T08:47:27.644Z,3.07
2019-02-18T08:49:54.259Z,2.73
2019-02-18T08:52:22.390Z,3.20
2019-02-18T08:54:56.215Z,2.87
2019-02-18T08:57:17.237Z,3.10
2019-02-18T08:59:43.737Z,2.80
2019-02-18T09:02:10.334Z,2.97
2019-02-18T09:04:36.730Z,3.47
2019-02-18T09:07:03.260Z,3.40
2019-02-18T09:09:29.815Z,3.43
2019-02-18T09:11:57.159Z,2.50
2019-02-18T09:14:23.562Z,3.17
2019-02-18T09:16:50.584Z,4.67
2019-02-18T09:19:18.023Z,3.10
2019-02-18T09:21:46.179Z,3.67
2019-02-18T09:24:21.115Z,4.33
2019-02-18T09:26:49.960Z,3.27
2019-02-18T09:29:17.340Z,3.67
2019-02-18T09:31:46.397Z,3.17
2019-02-18T09:34:12.964Z,3.80
2019-02-18T09:36:39.374Z,3.83
2019-02-18T09:39:09.587Z,3.37
2019-02-18T09:41:36.094Z,3.93
2019-02-18T09:44:02.591Z,2.80
2019-02-18T09:46:29.258Z,3.40
2019-02-18T09:48:55.841Z,2.90
2019-02-18T09:51:22.282Z,2.70
2019-02-18T09:53:48.853Z,3.63
2019-02-18T09:56:15.520Z,4.07
2019-02-18T09:58:41.971Z,4.10
2019-02-18T10:01:08.555Z,2.90
2019-02-18T10:03:35.068Z,2.53
2019-02-18T10:06:01.593Z,3.07
2019-02-18T10:08:28.134Z,3.00
2019-02-18T10:10:56.213Z,2.67
2019-02-18T10:13:22.715Z,2.33
2019-02-18T10:15:49.255Z,2.43
2019-02-18T10:18:15.808Z,2.73
2019-02-18T10:20:42.380Z,3.30
2019-02-18T10:23:08.819Z,3.17
2019-02-18T10:25:35.466Z,3.50
2019-02-18T10:28:01.983Z,4.47
2019-02-18T10:30:31.270Z,4.70
2019-02-18T10:32:57.794Z,3.40
2019-02-18T10:35:26.445Z,2.80
2019-02-18T10:37:55.020Z,3.10
2019-02-18T10:40:21.089Z,2.53
2019-02-18T10:42:47.573Z,2.63
2019-02-18T10:45:16.981Z,2.70
2019-02-18T10:47:43.496Z,4.17
2019-02-18T10:50:10.680Z,3.57
2019-02-18T10:52:37.190Z,3.37
2019-02-18T10:55:05.451Z,4.03
2019-02-18T10:57:32.409Z,3.40
2019-02-18T10:59:59.309Z,4.47
2019-02-18T11:02:25.900Z,4.60
2019-02-18T11:04:52.402Z,5.50
2019-02-18T11:07:18.832Z,6.23
2019-02-18T11:09:45.317Z,6.50
2019-02-18T11:12:11.881Z,6.37
2019-02-18T11:14:38.240Z,6.37
2019-02-18T11:17:04.777Z,7.43
2019-02-18T11:19:31.299Z,8.67
2019-02-18T11:21:57.918Z,8.67
2019-02-18T11:24:24.488Z,8.13
2019-02-18T11:26:51.252Z,9.27
2019-02-18T11:29:17.748Z,8.77
2019-02-18T11:31:44.207Z,9.37
2019-02-18T11:34:10.645Z,10.83
2019-02-18T11:36:37.293Z,11.30
2019-02-18T11:39:07.424Z,9.20
2019-02-18T11:41:33.846Z,11.53
2019-02-18T11:44:00.675Z,10.77
2019-02-18T11:46:27.090Z,11.83
2019-02-18T11:48:53.556Z,12.13
2019-02-18T11:51:20.187Z,11.53
2019-02-18T11:53:46.712Z,12.73
2019-02-18T11:56:13.456Z,12.53
2019-02-18T11:58:39.958Z,12.63
2019-02-18T12:01:06.845Z,12.17
2019-02-18T12:03:33.469Z,14.03
2019-02-18T12:06:08.677Z,12.53
2019-02-18T12:08:35.182Z,12.97
2019-02-18T12:11:01.633Z,13.57
2019-02-18T12:13:28.058Z,13.53
2019-02-18T12:15:54.667Z,13.23
2019-02-18T12:18:21.030Z,13.37
2019-02-18T12:20:47.654Z,13.33
2019-02-18T12:23:14.295Z,13.53
2019-02-18T12:25:40.897Z,14.17
2019-02-18T12:28:07.467Z,13.70
2019-02-18T12:30:34.095Z,14.70
2019-02-18T12:33:00.466Z,12.80
2019-02-18T12:35:30.869Z,14.23
2019-02-18T12:37:55.742Z,14.87
2019-02-18T12:40:22.582Z,13.83
2019-02-18T12:42:49.083Z,15.73
2019-02-18T12:45:15.674Z,16.57
2019-02-18T12:47:42.266Z,16.73
2019-02-18T12:50:09.874Z,15.47
2019-02-18T12:52:36.354Z,16.17
2019-02-18T12:55:04.118Z,16.10
2019-02-18T12:57:31.120Z,15.67
2019-02-18T12:59:57.953Z,16.17
2019-02-18T13:02:24.579Z,15.97
2019-02-18T13:04:51.086Z,17.83
2019-02-18T13:07:17.547Z,15.30
2019-02-18T13:09:43.962Z,16.63
2019-02-18T13:12:10.260Z,16.20
2019-02-18T13:14:36.731Z,15.57
2019-02-18T13:17:03.628Z,15.87
2019-02-18T13:19:30.046Z,15.73
2019-02-18T13:21:56.825Z,16.47
2019-02-18T13:24:23.386Z,17.20
2019-02-18T13:26:49.773Z,17.00
2019-02-18T13:29:16.163Z,15.90
2019-02-18T13:31:42.763Z,15.73
2019-02-18T13:34:09.052Z,17.40
2019-02-18T13:36:35.576Z,17.77
2019-02-18T13:39:04.015Z,16.57
2019-02-18T13:41:30.705Z,17.97
2019-02-18T13:43:57.046Z,17.57
2019-02-18T13:46:23.684Z,15.57
2019-02-18T13:48:50.439Z,18.23
2019-02-18T13:51:24.095Z,17.03
2019-02-18T13:53:45.283Z,18.10
2019-02-18T13:56:11.764Z,18.60
2019-02-18T13:58:38.174Z,16.63
2019-02-18T14:01:05.178Z,16.40
2019-02-18T14:03:31.656Z,17.43
2019-02-18T14:05:58.146Z,18.90
2019-02-18T14:08:24.869Z,17.37
2019-02-18T14:10:51.464Z,17.20
2019-02-18T14:13:18.099Z,17.60
2019-02-18T14:15:45.465Z,16.67
2019-02-18T14:18:11.941Z,17.10
2019-02-18T14:20:38.545Z,17.70
2019-02-18T14:23:05.095Z,16.87
2019-02-18T14:25:31.617Z,17.03
2019-02-18T14:27:58.214Z,15.37
2019-02-18T14:30:24.812Z,17.33
2019-02-18T14:32:51.530Z,16.93
2019-02-18T14:35:18.063Z,18.37
2019-02-18T14:37:44.738Z,16.97
2019-02-18T14:40:13.219Z,18.93
2019-02-18T14:42:39.726Z,18.07
2019-02-18T14:45:07.085Z,17.63
2019-02-18T14:47:33.618Z,17.70
2019-02-18T14:50:00.051Z,16.47
2019-02-18T14:52:27.075Z,17.47
2019-02-18T14:54:53.816Z,16.90
2019-02-18T14:57:20.583Z,19.00
2019-02-18T14:59:47.224Z,17.13
2019-02-18T15:02:13.910Z,18.33
2019-02-18T15:04:40.394Z,17.83
2019-02-18T15:07:06.916Z,17.67
2019-02-18T15:09:33.538Z,17.67
2019-02-18T15:12:00.039Z,18.03
2019-02-18T15:14:26.648Z,17.73
2019-02-18T15:16:53.446Z,16.43
2019-02-18T15:19:20.066Z,16.50
2019-02-18T15:21:46.614Z,16.57
2019-02-18T15:24:13.082Z,17.83
2019-02-18T15:26:39.722Z,17.23
2019-02-18T15:29:06.266Z,17.47
2019-02-18T15:31:32.865Z,18.43
2019-02-18T15:33:59.334Z,16.80
2019-02-18T15:36:25.863Z,16.47
2019-02-18T15:38:52.475Z,15.60
2019-02-18T15:41:20.059Z,17.93
2019-02-18T15:43:46.615Z,18.67
2019-02-18T15:46:13.147Z,17.70
2019-02-18T15:48:39.652Z,18.63
2019-02-18T15:51:06.267Z,17.97
2019-02-18T15:53:32.984Z,19.20
2019-02-18T15:55:59.334Z,19.07
2019-02-18T15:58:25.884Z,17.13
2019-02-18T16:00:52.397Z,19.27
2019-02-18T16:03:18.755Z,18.93
2019-02-18T16:05:45.571Z,17.27
2019-02-18T16:08:12.155Z,16.40
2019-02-18T16:10:38.848Z,17.43
2019-02-18T16:13:05.433Z,17.93
2019-02-18T16:15:32.022Z,18.50
2019-02-18T16:17:58.549Z,17.63
2019-02-18T16:20:25.083Z,20.13
2019-02-18T16:22:51.717Z,18.13
2019-02-18T16:25:21.000Z,18.87
2019-02-18T16:27:47.526Z,17.23
2019-02-18T16:30:14.242Z,18.37
2019-02-18T16:32:41.131Z,18.43
2019-02-18T16:35:08.380Z,17.57
2019-02-18T16:37:36.158Z,16.97
2019-02-18T16:40:05.953Z,17.53
2019-02-18T16:42:32.500Z,17.47
2019-02-18T16:44:59.477Z,17.40
2019-02-18T16:47:25.921Z,16.93
2019-02-18T16:49:52.350Z,18.23
2019-02-18T16:52:19.048Z,17.13
2019-02-18T16:54:45.623Z,20.70
2019-02-18T16:57:12.244Z,18.17
2019-02-18T16:59:38.742Z,19.50
2019-02-18T17:02:05.412Z,18.20
2019-02-18T17:04:32.418Z,18.13
2019-02-18T17:06:59.145Z,19.17
2019-02-18T17:09:25.398Z,18.50
2019-02-18T17:11:51.981Z,17.27
2019-02-18T17:14:18.509Z,17.37
2019-02-18T17:16:45.011Z,16.90
2019-02-18T17:19:11.549Z,17.57
2019-02-18T17:21:38.218Z,17.30
2019-02-18T17:24:04.894Z,15.60
2019-02-18T17:26:31.595Z,16.27
2019-02-18T17:28:58.186Z,17.10
2019-02-18T17:31:24.767Z,15.13
2019-02-18T17:33:51.249Z,17.00
2019-02-18T17:36:17.671Z,17.13
2019-02-18T17:38:44.125Z,15.00
2019-02-18T17:41:10.685Z,15.57
2019-02-18T17:43:37.177Z,16.63
2019-02-18T17:46:03.861Z,15.93
2019-02-18T17:48:30.581Z,14.43
2019-02-18T17:50:57.150Z,15.07
2019-02-18T17:53:23.681Z,14.53
2019-02-18T17:55:50.274Z,15.17
2019-02-18T17:58:16.766Z,15.50
2019-02-18T18:00:45.174Z,15.17
2019-02-18T18:03:11.565Z,16.57
2019-02-18T18:05:38.441Z,15.73
2019-02-18T18:08:04.952Z,15.00
2019-02-18T18:10:31.548Z,16.07
2019-02-18T18:12:57.998Z,14.87
2019-02-18T18:15:24.508Z,14.90
2019-02-18T18:17:50.990Z,14.93
2019-02-18T18:20:17.458Z,16.97
2019-02-18T18:22:43.877Z,15.33
2019-02-18T18:25:11.874Z,15.90
2019-02-18T18:27:39.494Z,16.27
2019-02-18T18:30:09.540Z,15.03
2019-02-18T18:32:36.127Z,15.60
2019-02-18T18:35:03.743Z,16.07
2019-02-18T18:37:30.307Z,15.53
2019-02-18T18:39:56.756Z,14.17
2019-02-18T18:42:23.674Z,14.93
2019-02-18T18:44:50.130Z,15.57
2019-02-18T18:47:16.753Z,15.33
2019-02-18T18:49:43.233Z,15.87
2019-02-18T18:52:09.652Z,15.07
2019-02-18T18:54:36.320Z,15.67
2019-02-18T18:57:02.902Z,15.00
2019-02-18T18:59:29.583Z,16.17
2019-02-18T19:01:56.125Z,15.00
2019-02-18T19:04:22.613Z,15.20
2019-02-18T19:06:49.016Z,14.53
2019-02-18T19:09:15.810Z,15.20
2019-02-18T19:11:42.209Z,16.27
2019-02-18T19:14:08.620Z,16.77
2019-02-18T19:16:34.991Z,16.40
2019-02-18T19:19:02.938Z,16.17
2019-02-18T19:21:29.633Z,16.77
2019-02-18T19:23:57.557Z,15.73
2019-02-18T19:26:24.104Z,16.20
2019-02-18T19:28:50.499Z,16.07
2019-02-18T19:31:16.857Z,16.27
2019-02-18T19:33:43.463Z,15.50
2019-02-18T19:36:10.218Z,16.77
2019-02-18T19:38:36.882Z,15.37
2019-02-18T19:41:03.362Z,14.90
2019-02-18T19:43:29.836Z,16.33
2019-02-18T19:45:56.431Z,15.53
2019-02-18T19:48:22.916Z,16.43
2019-02-18T19:50:51.232Z,17.20
2019-02-18T19:53:17.690Z,16.67
2019-02-18T19:55:44.282Z,16.80
2019-02-18T19:58:10.775Z,16.20
2019-02-18T20:00:37.263Z,16.00
2019-02-18T20:03:03.948Z,15.77
2019-02-18T20:05:30.551Z,16.20
2019-02-18T20:07:57.148Z,16.60
2019-02-18T20:10:24.521Z,17.60
2019-02-18T20:12:51.665Z,15.27
2019-02-18T20:15:18.237Z,16.80
2019-02-18T20:17:44.713Z,17.27
2019-02-18T20:20:15.412Z,26.30
2019-02-18T20:22:41.952Z,16.07
2019-02-18T20:25:08.808Z,16.17
2019-02-18T20:27:35.290Z,15.33
2019-02-18T20:30:02.247Z,15.47
2019-02-18T20:32:28.632Z,16.03
2019-02-18T20:34:55.162Z,15.97
2019-02-18T20:37:21.692Z,15.60
2019-02-18T20:39:49.426Z,14.70
2019-02-18T20:42:17.088Z,16.47
2019-02-18T20:44:43.799Z,15.87
2019-02-18T20:47:10.535Z,16.27
2019-02-18T20:49:37.146Z,15.57
2019-02-18T20:52:03.885Z,16.60
2019-02-18T20:54:31.136Z,14.90
2019-02-18T20:56:57.638Z,17.57
2019-02-18T20:59:24.170Z,16.37
2019-02-18T21:01:50.764Z,16.37
2019-02-18T21:04:17.298Z,15.57
2019-02-18T21:06:44.032Z,16.50
2019-02-18T21:09:10.764Z,16.43
2019-02-18T21:11:37.220Z,16.57
2019-02-18T21:14:03.852Z,18.33
2019-02-18T21:16:30.496Z,17.87
2019-02-18T21:18:57.094Z,17.27
2019-02-18T21:21:24.051Z,16.40
2019-02-18T21:23:50.532Z,15.53
2019-02-18T21:26:17.210Z,16.70
2019-02-18T21:28:43.577Z,18.03
2019-02-18T21:31:10.634Z,16.83
2019-02-18T21:33:38.913Z,17.47
2019-02-18T21:36:05.669Z,16.10
2019-02-18T21:38:32.365Z,17.07
2019-02-18T21:40:58.781Z,17.73
2019-02-18T21:43:25.569Z,16.37
2019-02-18T21:45:52.010Z,18.27
2019-02-18T21:48:18.511Z,17.40
2019-02-18T21:50:44.925Z,17.40
2019-02-18T21:53:11.592Z,16.47
2019-02-18T21:55:38.182Z,16.90
2019-02-18T21:58:04.624Z,17.53
2019-02-18T22:00:31.056Z,16.83
2019-02-18T22:02:57.817Z,15.67
2019-02-18T22:05:24.290Z,16.30
2019-02-18T22:07:50.847Z,16.43
2019-02-18T22:10:17.457Z,16.03
2019-02-18T22:12:43.919Z,15.77
2019-02-18T22:15:12.420Z,17.57
2019-02-18T22:17:39.082Z,16.77
2019-02-18T22:20:08.176Z,16.63
2019-02-18T22:22:34.773Z,15.60
2019-02-18T22:25:01.339Z,16.80
2019-02-18T22:27:27.948Z,17.17
2019-02-18T22:29:56.543Z,16.67
2019-02-18T22:32:24.810Z,16.37
2019-02-18T22:34:51.388Z,17.87
2019-02-18T22:37:17.982Z,16.87
2019-02-18T22:39:44.564Z,16.67
2019-02-18T22:42:12.782Z,17.30
2019-02-18T22:44:41.871Z,17.27
2019-02-18T22:47:07.693Z,17.33
2019-02-18T22:49:34.376Z,16.60
2019-02-18T22:52:00.766Z,17.27
2019-02-18T22:54:27.411Z,16.53
2019-02-18T22:56:53.895Z,16.50
2019-02-18T22:59:20.542Z,17.07
2019-02-18T23:01:47.346Z,18.03
2019-02-18T23:04:13.822Z,15.87
2019-02-18T23:06:40.295Z,17.33
2019-02-18T23:09:08.681Z,17.00
2019-02-18T23:11:35.152Z,16.80
2019-02-18T23:14:01.846Z,17.20
2019-02-18T23:16:28.225Z,17.93
2019-02-18T23:18:54.801Z,17.37
2019-02-18T23:21:21.719Z,16.60
2019-02-18T23:23:48.108Z,19.00
2019-02-18T23:26:14.491Z,18.17
2019-02-18T23:28:41.277Z,17.50
2019-02-18T23:31:07.764Z,17.50
2019-02-18T23:33:34.426Z,15.93
2019-02-18T23:36:01.039Z,16.63
2019-02-18T23:38:27.442Z,17.43
2019-02-18T23:40:55.399Z,16.90
2019-02-18T23:43:21.919Z,15.93
2019-02-18T23:45:48.409Z,15.57
2019-02-18T23:48:14.915Z,16.23
2019-02-18T23:50:41.419Z,18.23
2019-02-18T23:53:07.898Z,17.17
2019-02-18T23:55:34.382Z,18.20
2019-02-18T23:58:00.789Z,17.93
